Time;durP1;ratioP1;P1;durP2;ratioP2;P2;SDS_P1;SDS_P2;PMS_P1;PMS_P2;Temp;Humidity;BMP_temperature;BMP_pressure;BME280_temperature;BME280_humidity;BME280_pressure;Samples;Min_cycle;Max_cycle;Signal;HPM_P1;HPM_P2
2022/03/21 00:00:27;;;;;;;;;;;9.90;99.90;;;;;;2081062;28;19912;-69
2022/03/21 00:01:28;;;;;;;;;;;10.00;99.90;;;;;;2080908;28;19917;-69
2022/03/21 00:02:28;;;;;;;;;;;9.90;99.90;;;;;;2081137;28;19924;-69
2022/03/21 00:03:29;;;;;;;;;;;10.00;99.90;;;;;;2080956;28;19963;-69
2022/03/21 00:04:29;;;;;;;;;;;9.90;99.90;;;;;;2079810;28;19999;-69
2022/03/21 00:05:30;;;;;;;;;;;9.90;99.90;;;;;;2080192;28;19936;-69
2022/03/21 00:06:30;;;;;;;;;;;9.90;99.90;;;;;;2078399;28;20249;-69
2022/03/21 00:07:31;;;;;;;;;;;9.90;99.90;;;;;;2077911;28;19909;-69
2022/03/21 00:08:31;;;;;;;;;;;9.90;99.90;;;;;;2081081;28;19909;-69
2022/03/21 00:09:32;;;;;;;;;;;9.90;99.90;;;;;;2080403;28;20380;-69
2022/03/21 00:10:33;;;;;;;;;;;9.90;99.90;;;;;;2080526;28;20411;-69
2022/03/21 00:11:34;;;;;;;;;;;9.90;99.90;;;;;;2082113;28;21455;-69
2022/03/21 00:12:35;;;;;;;;;;;9.90;99.90;;;;;;2081338;28;20241;-69
2022/03/21 00:13:36;;;;;;;;;;;9.90;99.90;;;;;;2083062;28;19919;-69
2022/03/21 00:14:36;;;;;;;;;;;9.90;99.90;;;;;;2082441;28;19909;-69
2022/03/21 00:15:37;;;;;;;;;;;9.90;99.90;;;;;;2080649;28;19962;-69
2022/03/21 00:16:39;;;;;;;;;;;9.90;99.90;;;;;;2080988;28;20339;-69
2022/03/21 00:17:40;;;;;;;;;;;9.90;99.90;;;;;;2080782;28;19924;-69
2022/03/21 00:18:41;;;;;;;;;;;9.80;99.90;;;;;;2084124;28;19987;-69
2022/03/21 00:19:41;;;;;;;;;;;9.80;99.90;;;;;;2079564;28;20279;-69
2022/03/21 00:20:42;;;;;;;;;;;9.90;99.90;;;;;;2082476;28;19959;-69
2022/03/21 00:21:43;;;;;;;;;;;9.80;99.90;;;;;;2087603;28;19916;-68
2022/03/21 00:22:44;;;;;;;;;;;9.80;99.90;;;;;;2082317;28;19920;-69
2022/03/21 00:23:45;;;;;;;;;;;9.80;99.90;;;;;;2082697;28;20257;-69
2022/03/21 00:24:45;;;;;;;;;;;9.80;99.90;;;;;;2084867;28;20004;-69
2022/03/21 00:25:46;;;;;;;;;;;9.80;99.90;;;;;;2080658;28;19956;-69
2022/03/21 00:26:46;;;;;;;;;;;9.90;99.90;;;;;;2083981;28;20019;-69
2022/03/21 00:27:47;;;;;;;;;;;9.80;99.90;;;;;;2081456;28;19909;-69
2022/03/21 00:28:49;;;;;;;;;;;9.80;99.90;;;;;;2080700;28;19916;-69
2022/03/21 00:29:49;;;;;;;;;;;9.80;99.90;;;;;;2080804;28;19912;-69
2022/03/21 00:30:50;;;;;;;;;;;9.90;99.90;;;;;;2078484;28;19911;-69
2022/03/21 00:31:51;;;;;;;;;;;9.80;99.90;;;;;;2079342;28;20372;-69
2022/03/21 00:32:51;;;;;;;;;;;9.80;99.90;;;;;;2078622;28;19927;-69
2022/03/21 00:33:52;;;;;;;;;;;9.80;99.90;;;;;;2083740;28;19916;-69
2022/03/21 00:34:52;;;;;;;;;;;9.80;99.90;;;;;;2083574;28;19924;-69
2022/03/21 00:35:53;;;;;;;;;;;9.80;99.90;;;;;;2078996;28;19959;-69
2022/03/21 00:36:53;;;;;;;;;;;9.80;99.90;;;;;;2078569;28;19905;-69
2022/03/21 00:37:54;;;;;;;;;;;9.80;99.90;;;;;;2079271;28;19913;-69
2022/03/21 00:38:55;;;;;;;;;;;9.80;99.90;;;;;;2081316;28;19959;-69
2022/03/21 00:39:55;;;;;;;;;;;9.80;99.90;;;;;;2081781;28;19916;-69
2022/03/21 00:40:57;;;;;;;;;;;9.80;99.90;;;;;;2082882;28;19951;-69
2022/03/21 00:41:57;;;;;;;;;;;9.80;99.90;;;;;;2082077;28;20335;-69
2022/03/21 00:42:58;;;;;;;;;;;9.80;99.90;;;;;;2083471;28;19905;-69
2022/03/21 00:43:59;;;;;;;;;;;9.80;99.90;;;;;;2082710;28;20288;-69
2022/03/21 00:45:01;;;;;;;;;;;9.80;99.90;;;;;;2081374;28;19905;-69
2022/03/21 00:46:02;;;;;;;;;;;9.80;99.90;;;;;;2077761;28;19916;-69
2022/03/21 00:47:03;;;;;;;;;;;9.80;99.90;;;;;;2080016;28;20012;-69
2022/03/21 00:48:04;;;;;;;;;;;9.80;99.90;;;;;;2080799;28;19921;-69
2022/03/21 00:49:08;;;;;;;;;;;9.80;99.90;;;;;;2083198;28;19920;-69
2022/03/21 00:50:10;;;;;;;;;;;9.80;99.90;;;;;;2080624;28;19967;-69
2022/03/21 00:51:11;;;;;;;;;;;9.80;99.90;;;;;;2082067;28;19905;-69
2022/03/21 00:52:12;;;;;;;;;;;9.80;99.90;;;;;;2081961;28;19996;-69
2022/03/21 00:53:14;;;;;;;;;;;9.80;99.90;;;;;;2080270;28;19906;-69
2022/03/21 00:54:14;;;;;;;;;;;9.80;99.90;;;;;;2081988;28;19905;-69
2022/03/21 00:55:16;;;;;;;;;;;9.80;99.90;;;;;;2078008;28;20008;-69
2022/03/21 00:56:17;;;;;;;;;;;9.80;99.90;;;;;;2076956;28;19944;-69
2022/03/21 00:57:17;;;;;;;;;;;9.70;99.90;;;;;;2080985;28;19912;-69
2022/03/21 00:58:18;;;;;;;;;;;9.70;99.90;;;;;;2080193;28;19913;-69
2022/03/21 00:59:18;;;;;;;;;;;9.70;99.90;;;;;;2080763;28;20024;-69
2022/03/21 01:00:21;;;;;;;;;;;9.70;99.90;;;;;;2081032;28;19909;-69
2022/03/21 01:01:23;;;;;;;;;;;9.70;99.90;;;;;;2078503;28;19916;-69
2022/03/21 01:02:23;;;;;;;;;;;9.70;99.90;;;;;;2082138;28;19971;-69
2022/03/21 01:03:23;;;;;;;;;;;9.70;99.90;;;;;;2079912;28;20019;-69
2022/03/21 01:04:24;;;;;;;;;;;9.70;99.90;;;;;;2080288;28;19995;-69
2022/03/21 01:05:25;;;;;;;;;;;9.70;99.90;;;;;;2079370;28;19909;-68
2022/03/21 01:06:25;;;;;;;;;;;9.70;99.90;;;;;;2079318;28;20368;-68
2022/03/21 01:07:26;;;;;;;;;;;9.70;99.90;;;;;;2082927;28;19913;-68
2022/03/21 01:08:26;;;;;;;;;;;9.70;99.90;;;;;;2082151;28;19916;-68
2022/03/21 01:09:27;;;;;;;;;;;9.70;99.90;;;;;;2079165;28;20407;-68
2022/03/21 01:10:28;;;;;;;;;;;9.70;99.90;;;;;;2081603;28;19960;-68
2022/03/21 01:11:29;;;;;;;;;;;9.70;99.90;;;;;;2079422;28;19913;-68
2022/03/21 01:12:30;;;;;;;;;;;9.70;99.90;;;;;;2080853;28;19924;-68
2022/03/21 01:13:30;;;;;;;;;;;9.70;99.90;;;;;;2080946;28;20361;-68
2022/03/21 01:14:33;;;;;;;;;;;9.70;99.90;;;;;;2082986;28;19956;-69
2022/03/21 01:15:34;;;;;;;;;;;9.70;99.90;;;;;;2078631;28;19913;-69
2022/03/21 01:16:34;;;;;;;;;;;9.70;99.90;;;;;;2082204;28;19927;-69
2022/03/21 01:17:35;;;;;;;;;;;9.70;99.90;;;;;;2079390;28;20367;-69
2022/03/21 01:18:36;;;;;;;;;;;9.60;99.90;;;;;;2081422;28;20345;-69
2022/03/21 01:19:36;;;;;;;;;;;9.60;99.90;;;;;;2077310;28;19967;-69
2022/03/21 01:20:37;;;;;;;;;;;9.70;99.90;;;;;;2083681;28;19963;-69
2022/03/21 01:21:37;;;;;;;;;;;9.70;99.90;;;;;;2083130;28;20363;-69
2022/03/21 01:22:38;;;;;;;;;;;9.70;99.90;;;;;;2086363;28;19905;-69
2022/03/21 01:23:39;;;;;;;;;;;9.70;99.90;;;;;;2082898;28;19908;-69
2022/03/21 01:24:39;;;;;;;;;;;9.70;99.90;;;;;;2081045;28;20784;-69
2022/03/21 01:25:40;;;;;;;;;;;9.60;99.90;;;;;;2081365;28;19911;-69
2022/03/21 01:26:40;;;;;;;;;;;9.60;99.90;;;;;;2080892;28;20360;-69
2022/03/21 01:27:41;;;;;;;;;;;9.60;99.90;;;;;;2077255;28;19916;-69
2022/03/21 01:28:42;;;;;;;;;;;9.60;99.90;;;;;;2083686;28;19996;-69
2022/03/21 01:29:43;;;;;;;;;;;9.60;99.90;;;;;;2083383;28;19908;-69
2022/03/21 01:30:43;;;;;;;;;;;9.60;99.90;;;;;;2081028;28;19917;-69
2022/03/21 01:31:44;;;;;;;;;;;9.60;99.90;;;;;;2082684;28;20417;-69
2022/03/21 01:32:45;;;;;;;;;;;9.60;99.90;;;;;;2081366;28;19923;-69
2022/03/21 01:33:45;;;;;;;;;;;9.60;99.90;;;;;;2078899;28;19986;-69
2022/03/21 01:34:46;;;;;;;;;;;9.60;99.90;;;;;;2079408;28;19951;-69
2022/03/21 01:35:46;;;;;;;;;;;9.60;99.90;;;;;;2076363;28;19913;-69
2022/03/21 01:36:47;;;;;;;;;;;9.60;99.90;;;;;;2083966;28;19944;-69
2022/03/21 01:37:47;;;;;;;;;;;9.60;99.90;;;;;;2080160;28;20080;-68
2022/03/21 01:38:48;;;;;;;;;;;9.60;99.90;;;;;;2080432;28;19912;-68
2022/03/21 01:39:48;;;;;;;;;;;9.60;99.90;;;;;;2081423;28;19971;-68
2022/03/21 01:40:49;;;;;;;;;;;9.60;99.90;;;;;;2078420;28;20230;-68
2022/03/21 01:41:49;;;;;;;;;;;9.60;99.90;;;;;;2081563;28;19943;-68
2022/03/21 01:42:50;;;;;;;;;;;9.60;99.90;;;;;;2080278;28;19913;-68
2022/03/21 01:43:57;;;;;;;;;;;9.60;99.90;;;;;;2081747;28;20361;-69
2022/03/21 01:44:58;;;;;;;;;;;9.50;99.90;;;;;;2084857;28;20012;-69
2022/03/21 01:45:58;;;;;;;;;;;9.60;99.90;;;;;;2079429;28;19920;-69
2022/03/21 01:46:59;;;;;;;;;;;9.60;99.90;;;;;;2081871;28;19999;-69
2022/03/21 01:47:59;;;;;;;;;;;9.60;99.90;;;;;;2080645;28;19961;-69
2022/03/21 01:49:00;;;;;;;;;;;9.60;99.90;;;;;;2081050;28;19905;-69
2022/03/21 01:50:02;;;;;;;;;;;9.50;99.90;;;;;;2079314;28;20068;-69
2022/03/21 01:51:02;;;;;;;;;;;9.50;99.90;;;;;;2077875;28;19905;-69
2022/03/21 01:52:03;;;;;;;;;;;9.60;99.90;;;;;;2080711;28;19917;-69
2022/03/21 01:55:45;;;;;;;;;;;9.50;99.90;;;;;;2080360;28;19913;-68
2022/03/21 01:56:46;;;;;;;;;;;9.50;99.90;;;;;;2081624;28;19905;-68
2022/03/21 01:57:47;;;;;;;;;;;9.50;99.90;;;;;;2078446;28;20382;-68
2022/03/21 01:58:47;;;;;;;;;;;9.40;99.90;;;;;;2079667;28;20386;-68
2022/03/21 01:59:48;;;;;;;;;;;9.40;99.90;;;;;;2078318;28;19909;-69
2022/03/21 02:00:48;;;;;;;;;;;9.50;99.90;;;;;;2083630;28;19916;-69
2022/03/21 02:01:49;;;;;;;;;;;9.40;99.90;;;;;;2084166;28;19912;-70
2022/03/21 02:02:50;;;;;;;;;;;9.40;99.90;;;;;;2081337;28;19905;-69
2022/03/21 02:03:51;;;;;;;;;;;9.40;99.90;;;;;;2082405;28;19909;-69
2022/03/21 02:04:52;;;;;;;;;;;9.40;99.90;;;;;;2081470;28;19909;-69
2022/03/21 02:05:52;;;;;;;;;;;9.40;99.90;;;;;;2079660;28;19959;-69
2022/03/21 02:06:53;;;;;;;;;;;9.40;99.90;;;;;;2080126;28;20284;-69
2022/03/21 02:07:54;;;;;;;;;;;9.40;99.90;;;;;;2081865;28;20288;-69
2022/03/21 02:08:56;;;;;;;;;;;9.30;99.90;;;;;;2083677;28;19906;-69
2022/03/21 02:09:56;;;;;;;;;;;9.30;99.90;;;;;;2082165;28;19913;-68
2022/03/21 02:10:57;;;;;;;;;;;9.40;99.90;;;;;;2082669;28;20289;-68
2022/03/21 02:11:57;;;;;;;;;;;9.30;99.90;;;;;;2079112;28;19916;-69
2022/03/21 02:12:58;;;;;;;;;;;9.30;99.90;;;;;;2081679;28;19909;-70
2022/03/21 02:13:59;;;;;;;;;;;9.30;99.90;;;;;;2081499;28;19954;-69
2022/03/21 02:14:59;;;;;;;;;;;9.30;99.90;;;;;;2080412;28;19908;-69
2022/03/21 02:16:00;;;;;;;;;;;9.30;99.90;;;;;;2083434;28;19912;-69
2022/03/21 02:17:01;;;;;;;;;;;9.30;99.90;;;;;;2083456;28;19909;-68
2022/03/21 02:18:02;;;;;;;;;;;9.30;99.90;;;;;;2081731;28;19959;-68
2022/03/21 02:19:15;;;;;;;;;;;9.30;99.90;;;;;;2081246;28;19931;-68
2022/03/21 02:20:18;;;;;;;;;;;9.30;99.90;;;;;;2082346;28;19920;-68
2022/03/21 02:21:24;;;;;;;;;;;9.30;99.90;;;;;;2077667;28;19916;-68
2022/03/21 02:22:30;;;;;;;;;;;9.30;99.90;;;;;;2082589;28;19905;-68
2022/03/21 02:23:36;;;;;;;;;;;9.30;99.90;;;;;;2077973;28;19939;-68
2022/03/21 02:24:47;;;;;;;;;;;9.30;99.90;;;;;;2079849;28;19970;-69
2022/03/21 02:25:48;;;;;;;;;;;9.30;99.90;;;;;;2081041;28;19954;-69
2022/03/21 02:26:49;;;;;;;;;;;9.30;99.90;;;;;;2082609;28;20631;-69
2022/03/21 02:27:50;;;;;;;;;;;9.30;99.90;;;;;;2080681;28;19913;-69
2022/03/21 02:28:51;;;;;;;;;;;9.30;99.90;;;;;;2079133;28;20000;-69
2022/03/21 02:29:52;;;;;;;;;;;9.30;99.90;;;;;;2077714;28;19944;-69
2022/03/21 02:30:53;;;;;;;;;;;9.30;99.90;;;;;;2076433;28;19905;-69
2022/03/21 02:31:57;;;;;;;;;;;9.30;99.90;;;;;;2084774;28;19955;-69
2022/03/21 02:32:59;;;;;;;;;;;9.30;99.90;;;;;;2079930;28;19924;-69
2022/03/21 02:34:00;;;;;;;;;;;9.20;99.90;;;;;;2081773;28;20016;-68
2022/03/21 02:35:01;;;;;;;;;;;9.20;99.90;;;;;;2081185;28;19909;-69
2022/03/21 02:36:02;;;;;;;;;;;9.30;99.90;;;;;;2079972;28;19913;-69
2022/03/21 02:37:03;;;;;;;;;;;9.20;99.90;;;;;;2079211;28;19909;-69
2022/03/21 02:38:05;;;;;;;;;;;9.20;99.90;;;;;;2083716;28;20648;-69
2022/03/21 02:39:05;;;;;;;;;;;9.20;99.90;;;;;;2079954;28;19906;-69
2022/03/21 02:40:08;;;;;;;;;;;9.30;99.90;;;;;;2081853;28;20349;-68
2022/03/21 02:41:09;;;;;;;;;;;9.20;99.90;;;;;;2076659;28;19913;-68
2022/03/21 02:42:09;;;;;;;;;;;9.20;99.90;;;;;;2080780;28;19952;-68
2022/03/21 02:43:10;;;;;;;;;;;9.20;99.90;;;;;;2079154;28;20364;-68
2022/03/21 02:44:10;;;;;;;;;;;9.20;99.90;;;;;;2081778;28;19916;-68
2022/03/21 02:45:11;;;;;;;;;;;9.20;99.90;;;;;;2079226;28;20596;-68
2022/03/21 02:46:11;;;;;;;;;;;9.20;99.90;;;;;;2081222;28;19944;-69
2022/03/21 02:47:11;;;;;;;;;;;9.20;99.90;;;;;;2081714;28;20285;-70
2022/03/21 02:48:13;;;;;;;;;;;9.20;99.90;;;;;;2084714;28;19905;-69
2022/03/21 02:49:14;;;;;;;;;;;9.20;99.90;;;;;;2081765;28;19919;-69
2022/03/21 02:50:20;;;;;;;;;;;9.10;99.90;;;;;;2084225;28;19915;-69
2022/03/21 02:51:21;;;;;;;;;;;9.10;99.90;;;;;;2080080;28;20350;-69
2022/03/21 02:52:22;;;;;;;;;;;9.10;99.90;;;;;;2082555;28;19908;-69
2022/03/21 02:53:24;;;;;;;;;;;9.10;99.90;;;;;;2082323;28;19976;-69
2022/03/21 02:54:28;;;;;;;;;;;9.10;99.90;;;;;;2085608;28;19912;-69
2022/03/21 02:55:28;;;;;;;;;;;9.10;99.90;;;;;;2081137;28;20413;-69
2022/03/21 02:56:29;;;;;;;;;;;9.10;99.90;;;;;;2082228;28;19978;-69
2022/03/21 02:57:31;;;;;;;;;;;9.10;99.90;;;;;;2084068;28;19970;-69
2022/03/21 02:58:31;;;;;;;;;;;9.00;99.90;;;;;;2080394;28;19905;-69
2022/03/21 02:59:32;;;;;;;;;;;9.00;99.90;;;;;;2083289;28;19905;-69
2022/03/21 03:00:32;;;;;;;;;;;9.00;99.90;;;;;;2084129;28;20003;-69
2022/03/21 03:01:33;;;;;;;;;;;9.00;99.90;;;;;;2079292;28;19916;-69
2022/03/21 03:02:33;;;;;;;;;;;9.00;99.90;;;;;;2077028;28;19909;-69
2022/03/21 03:03:34;;;;;;;;;;;9.00;99.90;;;;;;2079369;28;19970;-69
2022/03/21 03:04:34;;;;;;;;;;;9.00;99.90;;;;;;2085670;28;19909;-69
2022/03/21 03:05:34;;;;;;;;;;;9.00;99.90;;;;;;2081964;28;20341;-69
2022/03/21 03:06:35;;;;;;;;;;;8.90;99.90;;;;;;2080921;28;19904;-69
2022/03/21 03:07:35;;;;;;;;;;;8.90;99.90;;;;;;2080964;28;20058;-69
2022/03/21 03:08:37;;;;;;;;;;;8.90;99.90;;;;;;2081386;28;20291;-69
2022/03/21 03:09:37;;;;;;;;;;;8.90;99.90;;;;;;2082176;28;19924;-69
2022/03/21 03:10:38;;;;;;;;;;;8.90;99.90;;;;;;2081215;28;19945;-69
2022/03/21 03:11:38;;;;;;;;;;;8.90;99.90;;;;;;2080640;28;19966;-69
2022/03/21 03:12:39;;;;;;;;;;;8.90;99.90;;;;;;2087370;28;19905;-69
2022/03/21 03:13:39;;;;;;;;;;;8.90;99.90;;;;;;2084462;28;19951;-69
2022/03/21 03:14:39;;;;;;;;;;;8.90;99.90;;;;;;2084468;28;20446;-69
2022/03/21 03:15:40;;;;;;;;;;;8.90;99.90;;;;;;2081580;28;19912;-69
2022/03/21 03:16:40;;;;;;;;;;;8.90;99.90;;;;;;2083058;28;20364;-69
2022/03/21 03:17:41;;;;;;;;;;;8.90;99.90;;;;;;2082450;28;19928;-69
2022/03/21 03:18:44;;;;;;;;;;;8.90;99.90;;;;;;2082222;28;19952;-69
2022/03/21 03:19:44;;;;;;;;;;;8.90;99.90;;;;;;2081710;28;19909;-69
2022/03/21 03:20:49;;;;;;;;;;;8.90;99.90;;;;;;2087465;28;19909;-69
2022/03/21 03:21:50;;;;;;;;;;;8.90;99.90;;;;;;2085836;28;19992;-69
2022/03/21 03:22:51;;;;;;;;;;;8.90;99.90;;;;;;2083549;28;19932;-69
2022/03/21 03:23:51;;;;;;;;;;;8.90;99.90;;;;;;2082486;28;20423;-69
2022/03/21 03:24:52;;;;;;;;;;;8.90;99.90;;;;;;2079411;28;19947;-69
2022/03/21 03:25:57;;;;;;;;;;;8.90;99.90;;;;;;2081999;28;20396;-69
2022/03/21 03:26:58;;;;;;;;;;;8.90;99.90;;;;;;2085556;28;19909;-69
2022/03/21 03:27:58;;;;;;;;;;;8.90;99.90;;;;;;2082146;28;19937;-69
2022/03/21 03:28:59;;;;;;;;;;;8.90;99.90;;;;;;2083280;28;20375;-69
2022/03/21 03:30:01;;;;;;;;;;;8.90;99.90;;;;;;2082965;28;19912;-69
2022/03/21 03:31:03;;;;;;;;;;;8.90;99.90;;;;;;2082873;28;19983;-69
2022/03/21 03:32:03;;;;;;;;;;;8.90;99.90;;;;;;2083839;28;19913;-69
2022/03/21 03:33:04;;;;;;;;;;;8.90;99.90;;;;;;2082141;28;20372;-69
2022/03/21 03:34:04;;;;;;;;;;;8.90;99.90;;;;;;2079831;28;19932;-69
2022/03/21 03:35:05;;;;;;;;;;;8.80;99.90;;;;;;2081354;28;20287;-69
2022/03/21 03:36:06;;;;;;;;;;;8.80;99.90;;;;;;2081791;28;19912;-69
2022/03/21 03:37:07;;;;;;;;;;;8.80;99.90;;;;;;2082553;28;19912;-69
2022/03/21 03:38:07;;;;;;;;;;;8.80;99.90;;;;;;2077044;28;19909;-69
2022/03/21 03:39:08;;;;;;;;;;;8.80;99.90;;;;;;2083781;28;20016;-69
2022/03/21 03:40:09;;;;;;;;;;;8.80;99.90;;;;;;2082468;28;20415;-69
2022/03/21 03:41:10;;;;;;;;;;;8.80;99.90;;;;;;2082290;28;19912;-69
2022/03/21 03:42:10;;;;;;;;;;;8.80;99.90;;;;;;2080435;28;19963;-69
2022/03/21 03:43:12;;;;;;;;;;;8.80;99.90;;;;;;2087806;28;19904;-69
2022/03/21 03:44:12;;;;;;;;;;;8.80;99.90;;;;;;2086703;28;19919;-69
2022/03/21 03:45:13;;;;;;;;;;;8.80;99.90;;;;;;2082061;28;19912;-69
2022/03/21 03:46:16;;;;;;;;;;;8.80;99.90;;;;;;2083246;28;19949;-68
2022/03/21 03:47:16;;;;;;;;;;;8.80;99.90;;;;;;2081601;28;20497;-68
2022/03/21 03:48:17;;;;;;;;;;;8.80;99.90;;;;;;2084158;28;20414;-69
2022/03/21 03:49:17;;;;;;;;;;;8.70;99.90;;;;;;2081170;28;20482;-69
2022/03/21 03:50:18;;;;;;;;;;;8.80;99.90;;;;;;2082540;28;19978;-69
2022/03/21 03:51:19;;;;;;;;;;;8.70;99.90;;;;;;2084116;28;19905;-69
2022/03/21 03:52:19;;;;;;;;;;;8.70;99.90;;;;;;2082186;28;19949;-69
2022/03/21 03:53:20;;;;;;;;;;;8.70;99.90;;;;;;2085545;28;19909;-69
2022/03/21 03:54:20;;;;;;;;;;;8.70;99.90;;;;;;2080856;28;19912;-69
2022/03/21 03:55:21;;;;;;;;;;;8.60;99.90;;;;;;2079158;28;19909;-69
2022/03/21 03:56:21;;;;;;;;;;;8.60;99.90;;;;;;2078613;28;19964;-69
2022/03/21 03:57:22;;;;;;;;;;;8.60;99.90;;;;;;2081372;28;19915;-69
2022/03/21 03:58:22;;;;;;;;;;;8.60;99.90;;;;;;2080536;28;19908;-69
2022/03/21 03:59:23;;;;;;;;;;;8.60;99.90;;;;;;2082853;28;20292;-69
2022/03/21 04:00:23;;;;;;;;;;;8.60;99.90;;;;;;2084270;28;19955;-69
2022/03/21 04:01:24;;;;;;;;;;;8.60;99.90;;;;;;2077916;28;20012;-69
2022/03/21 04:02:24;;;;;;;;;;;8.50;99.90;;;;;;2082852;28;19948;-69
2022/03/21 04:04:44;;;;;;;;;;;8.50;99.90;;;;;;2078284;28;19913;-69
2022/03/21 04:05:44;;;;;;;;;;;8.50;99.90;;;;;;2079964;28;19953;-69
2022/03/21 04:06:45;;;;;;;;;;;8.50;99.90;;;;;;2082900;28;19970;-69
2022/03/21 04:07:45;;;;;;;;;;;8.40;99.90;;;;;;2083667;28;19908;-69
2022/03/21 04:08:47;;;;;;;;;;;8.40;99.90;;;;;;2082593;28;19909;-69
2022/03/21 04:09:47;;;;;;;;;;;8.40;99.90;;;;;;2081592;28;19909;-69
2022/03/21 04:10:48;;;;;;;;;;;8.40;99.90;;;;;;2082532;28;20389;-68
2022/03/21 04:11:48;;;;;;;;;;;8.40;99.90;;;;;;2079490;28;20390;-69
2022/03/21 04:12:49;;;;;;;;;;;8.30;99.90;;;;;;2077887;28;19909;-69
2022/03/21 04:13:49;;;;;;;;;;;8.30;99.90;;;;;;2080825;28;19911;-69
2022/03/21 04:14:50;;;;;;;;;;;8.30;99.90;;;;;;2085996;28;20329;-69
2022/03/21 04:15:50;;;;;;;;;;;8.30;99.90;;;;;;2082526;28;19987;-69
2022/03/21 04:16:50;;;;;;;;;;;8.20;99.90;;;;;;2083551;28;19905;-68
2022/03/21 04:17:53;;;;;;;;;;;8.20;99.90;;;;;;2081177;28;19905;-68
2022/03/21 04:18:53;;;;;;;;;;;8.20;99.90;;;;;;2085098;28;20533;-68
2022/03/21 04:19:53;;;;;;;;;;;8.20;99.90;;;;;;2082737;28;20280;-68
2022/03/21 04:20:54;;;;;;;;;;;8.10;99.90;;;;;;2084051;28;19934;-69
2022/03/21 04:21:54;;;;;;;;;;;8.20;99.90;;;;;;2081529;28;19909;-69
2022/03/21 04:22:55;;;;;;;;;;;8.10;99.90;;;;;;2085882;28;19959;-69
2022/03/21 04:23:58;;;;;;;;;;;8.10;99.90;;;;;;2084177;28;20495;-68
2022/03/21 04:24:59;;;;;;;;;;;8.10;99.90;;;;;;2079930;28;20333;-68
2022/03/21 04:25:59;;;;;;;;;;;8.00;99.90;;;;;;2082336;28;19974;-68
2022/03/21 04:27:00;;;;;;;;;;;8.10;99.90;;;;;;2080674;28;19959;-69
2022/03/21 04:28:07;;;;;;;;;;;8.00;99.90;;;;;;2082006;28;20581;-69
2022/03/21 04:29:07;;;;;;;;;;;8.00;99.90;;;;;;2078315;28;19905;-69
2022/03/21 04:30:08;;;;;;;;;;;8.00;99.90;;;;;;2079010;28;19905;-68
2022/03/21 04:31:08;;;;;;;;;;;8.00;99.90;;;;;;2083092;28;19944;-69
2022/03/21 04:32:09;;;;;;;;;;;7.90;99.90;;;;;;2084756;28;20302;-69
2022/03/21 04:33:10;;;;;;;;;;;7.90;99.90;;;;;;2079281;28;19905;-68
2022/03/21 04:34:10;;;;;;;;;;;7.90;99.90;;;;;;2082253;28;19939;-68
2022/03/21 04:35:11;;;;;;;;;;;7.90;99.90;;;;;;2078181;28;19913;-68
2022/03/21 04:36:13;;;;;;;;;;;7.90;99.90;;;;;;2081758;28;20360;-68
2022/03/21 04:37:13;;;;;;;;;;;7.90;99.90;;;;;;2077650;28;19932;-69
2022/03/21 04:38:14;;;;;;;;;;;7.90;99.90;;;;;;2077722;28;19945;-69
2022/03/21 04:39:14;;;;;;;;;;;7.80;99.90;;;;;;2086214;28;20550;-69
2022/03/21 04:40:15;;;;;;;;;;;7.80;99.90;;;;;;2083242;28;19928;-69
2022/03/21 04:41:15;;;;;;;;;;;7.80;99.90;;;;;;2080862;28;19924;-68
2022/03/21 04:42:16;;;;;;;;;;;7.80;99.90;;;;;;2081606;28;19913;-68
2022/03/21 04:43:17;;;;;;;;;;;7.70;99.90;;;;;;2083252;28;20364;-68
2022/03/21 04:44:18;;;;;;;;;;;7.70;99.90;;;;;;2081092;28;19912;-68
2022/03/21 04:45:18;;;;;;;;;;;7.70;99.90;;;;;;2078056;28;19959;-68
2022/03/21 04:46:19;;;;;;;;;;;7.70;99.90;;;;;;2081694;28;19913;-68
2022/03/21 04:47:20;;;;;;;;;;;7.70;99.90;;;;;;2084151;28;19959;-68
2022/03/21 04:48:21;;;;;;;;;;;7.70;99.90;;;;;;2082995;28;19909;-68
2022/03/21 04:49:21;;;;;;;;;;;7.60;99.90;;;;;;2080341;28;19995;-68
2022/03/21 04:50:22;;;;;;;;;;;7.60;99.90;;;;;;2078992;28;19944;-68
2022/03/21 04:51:22;;;;;;;;;;;7.60;99.90;;;;;;2079175;28;19917;-69
2022/03/21 04:52:23;;;;;;;;;;;7.60;99.90;;;;;;2083853;28;20264;-69
2022/03/21 04:53:23;;;;;;;;;;;7.60;99.90;;;;;;2084479;28;19963;-68
2022/03/21 04:54:27;;;;;;;;;;;7.60;99.90;;;;;;2082424;28;19913;-69
2022/03/21 04:55:28;;;;;;;;;;;7.50;99.90;;;;;;2083242;28;19913;-69
2022/03/21 04:56:28;;;;;;;;;;;7.50;99.90;;;;;;2079327;28;19924;-69
2022/03/21 04:57:29;;;;;;;;;;;7.50;99.90;;;;;;2082311;28;20283;-69
2022/03/21 04:58:30;;;;;;;;;;;7.50;99.90;;;;;;2078829;28;19947;-69
2022/03/21 04:59:30;;;;;;;;;;;7.40;99.90;;;;;;2078762;28;19912;-69
2022/03/21 05:00:31;;;;;;;;;;;7.40;99.90;;;;;;2080956;28;19905;-69
2022/03/21 05:01:32;;;;;;;;;;;7.40;99.90;;;;;;2079840;28;20402;-68
2022/03/21 05:02:32;;;;;;;;;;;7.40;99.90;;;;;;2085213;28;19909;-68
2022/03/21 05:03:33;;;;;;;;;;;7.40;99.90;;;;;;2082531;28;20299;-68
2022/03/21 05:04:34;;;;;;;;;;;7.40;99.90;;;;;;2083563;28;20244;-69
2022/03/21 05:05:37;;;;;;;;;;;7.40;99.90;;;;;;2081758;28;19905;-68
2022/03/21 05:06:38;;;;;;;;;;;7.30;99.90;;;;;;2082788;28;19968;-69
2022/03/21 05:07:40;;;;;;;;;;;7.30;99.90;;;;;;2081434;28;20000;-68
2022/03/21 05:08:40;;;;;;;;;;;7.30;99.90;;;;;;2078557;28;19950;-68
2022/03/21 05:09:41;;;;;;;;;;;7.30;99.90;;;;;;2080016;28;19963;-68
2022/03/21 05:10:42;;;;;;;;;;;7.30;99.90;;;;;;2084025;28;20406;-68
2022/03/21 05:11:43;;;;;;;;;;;7.30;99.90;;;;;;2079729;28;19913;-68
2022/03/21 05:12:43;;;;;;;;;;;7.20;99.90;;;;;;2084392;28;19913;-68
2022/03/21 05:13:44;;;;;;;;;;;7.20;99.90;;;;;;2082192;28;19943;-68
2022/03/21 05:14:44;;;;;;;;;;;7.20;99.90;;;;;;2083208;28;20412;-68
2022/03/21 05:15:45;;;;;;;;;;;7.20;99.90;;;;;;2080087;28;19920;-68
2022/03/21 05:16:46;;;;;;;;;;;7.20;99.90;;;;;;2080253;28;19935;-68
2022/03/21 05:17:47;;;;;;;;;;;7.20;99.90;;;;;;2081582;28;20318;-68
2022/03/21 05:18:48;;;;;;;;;;;7.10;99.90;;;;;;2084998;28;19954;-68
2022/03/21 05:19:49;;;;;;;;;;;7.10;99.90;;;;;;2079613;28;20002;-68
2022/03/21 05:20:49;;;;;;;;;;;7.10;99.90;;;;;;2084956;28;20415;-68
2022/03/21 05:21:50;;;;;;;;;;;7.10;99.90;;;;;;2082283;28;19912;-69
2022/03/21 05:30:58;;;;;;;;;;;7.00;99.90;;;;;;2080351;28;19913;-68
2022/03/21 05:31:58;;;;;;;;;;;6.90;99.90;;;;;;2077764;28;19913;-68
2022/03/21 05:35:55;;;;;;;;;;;6.90;99.90;;;;;;2074777;28;19916;-68
2022/03/21 05:36:56;;;;;;;;;;;6.80;99.90;;;;;;2078346;28;19909;-68
2022/03/21 05:37:56;;;;;;;;;;;6.80;99.90;;;;;;2076977;28;19935;-68
2022/03/21 05:38:57;;;;;;;;;;;6.80;99.90;;;;;;2078276;28;19920;-68
2022/03/21 05:41:18;;;;;;;;;;;6.80;99.90;;;;;;2081705;28;20280;-68
2022/03/21 05:42:18;;;;;;;;;;;6.70;99.90;;;;;;2084866;28;19956;-69
2022/03/21 05:43:19;;;;;;;;;;;6.70;99.90;;;;;;2082157;28;20369;-68
2022/03/21 05:44:20;;;;;;;;;;;6.70;99.90;;;;;;2084951;28;19952;-68
2022/03/21 05:45:20;;;;;;;;;;;6.70;99.90;;;;;;2078425;28;19909;-68
2022/03/21 05:46:21;;;;;;;;;;;6.60;99.90;;;;;;2081440;28;19909;-69
2022/03/21 05:47:22;;;;;;;;;;;6.60;99.90;;;;;;2079468;28;19913;-68
2022/03/21 05:49:41;;;;;;;;;;;6.60;99.90;;;;;;2081821;28;19909;-68
2022/03/21 05:50:43;;;;;;;;;;;6.60;99.90;;;;;;2083359;28;19912;-68
2022/03/21 05:51:43;;;;;;;;;;;6.60;99.90;;;;;;2081861;28;19911;-68
2022/03/21 05:52:44;;;;;;;;;;;6.60;99.90;;;;;;2081502;28;19920;-68
2022/03/21 05:53:48;;;;;;;;;;;6.50;99.90;;;;;;2081308;28;19909;-68
2022/03/21 05:54:49;;;;;;;;;;;6.50;99.90;;;;;;2079083;28;19916;-68
2022/03/21 05:55:49;;;;;;;;;;;6.50;99.90;;;;;;2078102;28;19913;-68
2022/03/21 05:56:50;;;;;;;;;;;6.50;99.90;;;;;;2077992;28;19905;-68
2022/03/21 05:57:50;;;;;;;;;;;6.50;99.90;;;;;;2083253;28;19939;-68
2022/03/21 05:58:52;;;;;;;;;;;6.50;99.90;;;;;;2079883;28;19905;-69
2022/03/21 06:01:11;;;;;;;;;;;6.50;99.90;;;;;;2077244;28;19909;-69
2022/03/21 06:02:12;;;;;;;;;;;6.40;99.90;;;;;;2081960;28;20357;-69
2022/03/21 06:03:12;;;;;;;;;;;6.40;99.90;;;;;;2078291;28;19909;-68
2022/03/21 06:04:13;;;;;;;;;;;6.40;99.90;;;;;;2081675;28;19913;-69
2022/03/21 06:05:13;;;;;;;;;;;6.40;99.90;;;;;;2079553;28;19917;-68
2022/03/21 06:06:15;;;;;;;;;;;6.40;99.90;;;;;;2082864;28;20507;-68
2022/03/21 06:07:17;;;;;;;;;;;6.40;99.90;;;;;;2080674;28;19909;-68
2022/03/21 06:08:20;;;;;;;;;;;6.40;99.90;;;;;;2082386;28;20357;-68
2022/03/21 06:09:21;;;;;;;;;;;6.40;99.90;;;;;;2080347;28;19999;-68
2022/03/21 06:10:21;;;;;;;;;;;6.40;99.90;;;;;;2081262;28;19905;-68
2022/03/21 06:11:22;;;;;;;;;;;6.40;99.90;;;;;;2078377;28;19920;-68
2022/03/21 06:12:25;;;;;;;;;;;6.40;99.90;;;;;;2082530;28;20365;-68
2022/03/21 06:13:25;;;;;;;;;;;6.40;99.90;;;;;;2083680;28;19916;-68
2022/03/21 06:14:26;;;;;;;;;;;6.30;99.90;;;;;;2082913;28;19906;-68
2022/03/21 06:15:26;;;;;;;;;;;6.30;99.90;;;;;;2081562;28;19964;-69
2022/03/21 06:16:27;;;;;;;;;;;6.30;99.90;;;;;;2082132;28;19956;-69
2022/03/21 06:17:27;;;;;;;;;;;6.30;99.90;;;;;;2080820;28;20356;-68
2022/03/21 06:18:28;;;;;;;;;;;6.40;99.90;;;;;;2082830;28;19905;-68
2022/03/21 06:19:28;;;;;;;;;;;6.30;99.90;;;;;;2079132;28;19983;-68